createdAt,value
2018-03-24T00:00:52.727Z,5.50
2018-03-24T00:03:20.274Z,5.60
2018-03-24T00:05:47.928Z,5.50
2018-03-24T00:08:15.615Z,5.50
2018-03-24T00:10:43.134Z,5.50
2018-03-24T00:13:10.675Z,5.50
2018-03-24T00:15:38.210Z,5.50
2018-03-24T00:18:05.741Z,5.50
2018-03-24T00:20:33.357Z,5.60
2018-03-24T00:23:00.896Z,5.60
2018-03-24T00:25:28.474Z,5.60
2018-03-24T00:27:57.518Z,5.60
2018-03-24T00:30:25.087Z,5.60
2018-03-24T00:32:52.620Z,5.50
2018-03-24T00:35:20.151Z,5.50
2018-03-24T00:37:47.651Z,5.40
2018-03-24T00:40:15.495Z,5.40
2018-03-24T00:42:43.787Z,5.50
2018-03-24T00:45:11.816Z,5.50
2018-03-24T00:47:39.347Z,5.60
2018-03-24T00:50:06.874Z,5.50
2018-03-24T00:52:34.471Z,5.40
2018-03-24T00:55:01.949Z,5.40
2018-03-24T00:57:29.458Z,5.40
2018-03-24T00:59:56.956Z,5.40
2018-03-24T01:02:24.463Z,5.30
2018-03-24T01:04:52.002Z,5.30
2018-03-24T01:07:20.303Z,5.30
2018-03-24T01:09:47.944Z,5.30
2018-03-24T01:12:15.451Z,5.20
2018-03-24T01:14:43.013Z,5.20
2018-03-24T01:17:10.642Z,5.10
2018-03-24T01:19:38.160Z,5.10
2018-03-24T01:22:06.425Z,5.00
2018-03-24T01:24:34.743Z,4.90
2018-03-24T01:27:02.283Z,4.90
2018-03-24T01:29:29.787Z,4.90
2018-03-24T01:31:57.309Z,4.70
2018-03-24T01:34:24.837Z,4.70
2018-03-24T01:36:53.231Z,4.60
2018-03-24T01:39:21.506Z,4.40
2018-03-24T01:41:49.034Z,4.40
2018-03-24T01:44:17.320Z,4.30
2018-03-24T01:46:44.892Z,4.30
2018-03-24T01:49:13.174Z,4.20
2018-03-24T01:51:41.448Z,4.10
2018-03-24T01:54:09.758Z,4.10
2018-03-24T01:56:37.288Z,4.00
2018-03-24T01:59:05.140Z,4.00
2018-03-24T02:01:33.406Z,3.80
2018-03-24T02:04:00.914Z,3.80
2018-03-24T02:06:28.416Z,3.80
2018-03-24T02:08:55.978Z,3.60
2018-03-24T02:11:24.270Z,3.50
2018-03-24T02:13:53.292Z,3.40
2018-03-24T02:16:20.823Z,3.40
2018-03-24T02:18:49.135Z,3.30
2018-03-24T02:21:20.259Z,3.30
2018-03-24T02:23:47.802Z,3.30
2018-03-24T02:26:16.109Z,3.20
2018-03-24T02:28:43.608Z,3.20
2018-03-24T02:31:11.140Z,3.20
2018-03-24T02:33:38.665Z,3.20
2018-03-24T02:36:06.159Z,3.10
2018-03-24T02:38:33.697Z,3.10
2018-03-24T02:41:01.202Z,3.10
2018-03-24T02:43:28.718Z,3.00
2018-03-24T02:45:56.241Z,3.00
2018-03-24T02:48:23.764Z,2.90
2018-03-24T02:50:51.424Z,2.90
2018-03-24T02:53:18.940Z,2.90
2018-03-24T02:55:46.577Z,2.90
2018-03-24T02:58:14.124Z,2.90
2018-03-24T03:00:42.435Z,2.90
2018-03-24T03:03:09.922Z,2.80
2018-03-24T03:05:38.988Z,2.80
2018-03-24T03:08:06.603Z,2.80
2018-03-24T03:10:34.871Z,2.80
2018-03-24T03:13:03.143Z,2.80
2018-03-24T03:15:30.735Z,2.80
2018-03-24T03:17:58.272Z,2.70
2018-03-24T03:20:26.554Z,2.70
2018-03-24T03:22:54.811Z,2.70
2018-03-24T03:25:23.111Z,2.70
2018-03-24T03:27:50.636Z,2.60
2018-03-24T03:33:18.216Z,2.50
2018-03-24T03:35:46.442Z,2.50
2018-03-24T03:38:13.952Z,2.50
2018-03-24T03:40:41.479Z,2.40
2018-03-24T03:43:09.069Z,2.60
2018-03-24T03:45:36.711Z,2.90
2018-03-24T03:48:04.308Z,2.90
2018-03-24T03:50:32.591Z,3.10
2018-03-24T03:53:00.118Z,3.00
2018-03-24T03:55:27.615Z,2.90
2018-03-24T03:57:55.123Z,2.90
2018-03-24T04:00:22.624Z,2.90
2018-03-24T04:02:50.162Z,2.90
2018-03-24T04:05:18.471Z,2.90
2018-03-24T04:07:46.011Z,2.90
2018-03-24T04:10:13.591Z,3.00
2018-03-24T04:12:41.078Z,2.90
2018-03-24T04:15:08.704Z,2.80
2018-03-24T04:17:36.429Z,2.70
2018-03-24T04:20:04.707Z,2.80
2018-03-24T04:22:32.982Z,2.60
2018-03-24T04:25:01.302Z,2.60
2018-03-24T04:27:29.406Z,2.60
2018-03-24T04:29:56.919Z,2.60
2018-03-24T04:32:24.475Z,2.40
2018-03-24T04:34:51.963Z,2.20
2018-03-24T04:37:19.492Z,2.20
2018-03-24T04:39:47.017Z,2.50
2018-03-24T04:42:15.322Z,2.50
2018-03-24T04:44:42.859Z,2.50
2018-03-24T04:47:10.411Z,2.50
2018-03-24T04:49:38.742Z,2.60
2018-03-24T04:52:06.245Z,2.60
2018-03-24T04:54:34.547Z,2.60
2018-03-24T04:57:02.042Z,2.60
2018-03-24T04:59:29.590Z,2.60
2018-03-24T05:01:57.119Z,2.50
2018-03-24T05:04:24.645Z,2.60
2018-03-24T05:06:52.904Z,2.80
2018-03-24T05:09:20.707Z,2.80
2018-03-24T05:11:48.201Z,2.80
2018-03-24T05:14:15.710Z,2.80
2018-03-24T05:16:44.026Z,2.80
2018-03-24T05:19:11.660Z,2.80
2018-03-24T05:21:39.186Z,2.70
2018-03-24T05:24:07.018Z,2.70
2018-03-24T05:26:34.662Z,2.70
2018-03-24T05:29:02.167Z,2.70
2018-03-24T05:31:30.477Z,2.60
2018-03-24T05:33:57.992Z,2.60
2018-03-24T05:36:25.511Z,2.50
2018-03-24T05:38:53.401Z,2.50
2018-03-24T05:41:20.910Z,2.50
2018-03-24T05:43:48.589Z,2.50
2018-03-24T05:46:16.097Z,2.60
2018-03-24T05:48:43.996Z,2.60
2018-03-24T05:51:11.433Z,2.70
2018-03-24T05:53:39.736Z,2.80
2018-03-24T05:56:07.266Z,2.80
2018-03-24T05:58:35.541Z,2.80
2018-03-24T06:01:03.849Z,2.90
2018-03-24T06:03:31.375Z,2.80
2018-03-24T06:06:00.822Z,2.90
2018-03-24T06:08:28.306Z,2.90
2018-03-24T06:10:55.847Z,3.00
2018-03-24T06:13:23.391Z,3.10
2018-03-24T06:15:50.889Z,3.00
2018-03-24T06:18:20.013Z,3.30
2018-03-24T06:20:48.412Z,3.40
2018-03-24T06:23:16.723Z,3.40
2018-03-24T06:25:44.217Z,3.80
2018-03-24T06:28:12.485Z,3.70
2018-03-24T06:30:40.171Z,3.60
2018-03-24T06:33:07.694Z,3.60
2018-03-24T06:35:36.000Z,4.10
2018-03-24T06:38:03.555Z,4.10
2018-03-24T06:40:32.521Z,3.90
2018-03-24T06:43:00.822Z,3.90
2018-03-24T06:45:28.335Z,3.90
2018-03-24T06:47:55.861Z,4.00
2018-03-24T06:50:23.434Z,4.10
2018-03-24T06:52:50.963Z,4.20
2018-03-24T06:55:18.516Z,4.50
2018-03-24T06:57:46.078Z,4.30
2018-03-24T07:00:13.606Z,4.60
2018-03-24T07:02:42.162Z,5.40
2018-03-24T07:05:09.789Z,5.40
2018-03-24T07:07:37.308Z,5.80
2018-03-24T07:10:06.511Z,5.70
2018-03-24T07:12:34.824Z,4.80
2018-03-24T07:15:02.347Z,4.80
2018-03-24T07:17:30.755Z,5.60
2018-03-24T07:19:58.318Z,5.60
2018-03-24T07:22:25.815Z,5.40
2018-03-24T07:24:53.362Z,5.50
2018-03-24T07:27:21.663Z,5.90
2018-03-24T07:29:49.208Z,5.90
2018-03-24T07:32:17.408Z,5.50
2018-03-24T07:34:45.499Z,5.40
2018-03-24T07:37:13.067Z,6.10
2018-03-24T07:39:42.256Z,6.80
2018-03-24T07:42:09.821Z,7.30
2018-03-24T07:44:37.366Z,7.10
2018-03-24T07:47:04.887Z,7.90
2018-03-24T07:49:32.388Z,8.30
2018-03-24T07:51:59.928Z,9.90
2018-03-24T07:54:28.232Z,10.90
2018-03-24T07:56:55.997Z,10.90
2018-03-24T07:59:23.531Z,11.50
2018-03-24T08:01:51.118Z,11.40
2018-03-24T08:04:18.670Z,9.50
2018-03-24T08:06:46.174Z,9.40
2018-03-24T08:09:13.722Z,8.50
2018-03-24T08:11:41.918Z,8.90
2018-03-24T08:14:10.212Z,6.50
2018-03-24T08:16:38.749Z,6.30
2018-03-24T08:19:06.382Z,6.20
2018-03-24T08:21:33.918Z,6.20
2018-03-24T08:24:01.472Z,6.10
2018-03-24T08:26:28.995Z,6.20
2018-03-24T08:28:56.603Z,6.80
2018-03-24T08:31:24.213Z,7.30
2018-03-24T08:33:51.736Z,7.70
2018-03-24T08:36:19.689Z,9.00
2018-03-24T08:38:47.199Z,7.80
2018-03-24T08:41:14.713Z,7.60
2018-03-24T08:43:42.244Z,7.90
2018-03-24T08:46:09.742Z,8.40
2018-03-24T08:48:37.349Z,8.40
2018-03-24T08:51:05.624Z,8.20
2018-03-24T08:53:34.036Z,8.80
2018-03-24T08:56:01.508Z,8.80
2018-03-24T08:58:29.152Z,9.50
2018-03-24T09:00:56.696Z,9.50
2018-03-24T09:03:24.197Z,10.20
2018-03-24T09:05:51.720Z,10.90
2018-03-24T09:08:19.355Z,10.20
2018-03-24T09:10:47.650Z,10.50
2018-03-24T09:13:15.230Z,10.40
2018-03-24T09:15:42.737Z,9.10
2018-03-24T09:18:11.063Z,9.10
2018-03-24T09:20:38.610Z,9.10
2018-03-24T09:23:06.210Z,9.90
2018-03-24T09:25:34.581Z,9.40
2018-03-24T09:28:02.148Z,9.40
2018-03-24T09:30:29.639Z,9.00
2018-03-24T09:32:57.157Z,9.10
2018-03-24T09:35:24.686Z,8.40
2018-03-24T09:37:52.244Z,8.40
2018-03-24T09:40:19.763Z,8.40
2018-03-24T09:42:48.093Z,8.20
2018-03-24T09:45:15.625Z,8.10
2018-03-24T09:47:43.152Z,8.10
2018-03-24T09:50:11.738Z,8.10
2018-03-24T09:52:40.065Z,8.40
2018-03-24T09:55:07.576Z,8.40
2018-03-24T09:57:35.829Z,8.60
2018-03-24T10:00:04.089Z,8.30
2018-03-24T10:02:31.714Z,8.30
2018-03-24T10:04:59.292Z,9.00
2018-03-24T10:07:26.815Z,9.10
2018-03-24T10:09:54.350Z,9.10
2018-03-24T10:12:22.647Z,9.10
2018-03-24T10:14:50.250Z,9.00
2018-03-24T10:17:17.746Z,9.30
2018-03-24T10:19:46.298Z,9.10
2018-03-24T10:22:22.680Z,9.20
2018-03-24T10:24:51.312Z,9.30
2018-03-24T10:27:19.161Z,9.30
2018-03-24T10:29:46.717Z,9.40
2018-03-24T10:32:14.402Z,9.90
2018-03-24T10:34:41.951Z,10.00
2018-03-24T10:37:09.448Z,10.10
2018-03-24T10:39:37.198Z,10.00
2018-03-24T10:42:04.738Z,9.90
2018-03-24T10:44:32.333Z,9.70
2018-03-24T10:47:11.340Z,9.80
2018-03-24T10:49:39.055Z,10.80
2018-03-24T10:52:07.331Z,10.00
2018-03-24T10:54:34.855Z,9.90
2018-03-24T10:57:02.389Z,10.50
2018-03-24T10:59:29.904Z,10.70
2018-03-24T11:01:57.427Z,11.10
2018-03-24T11:04:25.012Z,10.70
2018-03-24T11:06:52.520Z,10.80
2018-03-24T11:09:20.066Z,10.80
2018-03-24T11:11:47.575Z,10.30
2018-03-24T11:14:15.868Z,10.30
2018-03-24T11:16:43.413Z,10.20
2018-03-24T11:19:11.683Z,10.20
2018-03-24T11:21:39.978Z,10.20
2018-03-24T11:24:07.518Z,10.20
2018-03-24T11:26:35.948Z,10.80
2018-03-24T11:29:03.466Z,10.80
2018-03-24T11:31:31.763Z,10.60
2018-03-24T11:33:59.322Z,10.50
2018-03-24T11:36:26.860Z,10.40
2018-03-24T11:38:54.392Z,10.20
2018-03-24T11:41:21.924Z,10.60
2018-03-24T11:43:49.481Z,10.30
2018-03-24T11:46:17.002Z,10.20
2018-03-24T11:48:44.604Z,10.40
2018-03-24T11:51:12.140Z,10.90
2018-03-24T11:53:45.254Z,10.90
2018-03-24T11:56:12.820Z,10.90
2018-03-24T11:58:40.405Z,11.10
2018-03-24T12:01:08.718Z,11.30
2018-03-24T12:03:36.362Z,11.30
2018-03-24T12:06:03.889Z,11.30
2018-03-24T12:08:32.235Z,11.10
2018-03-24T12:10:59.791Z,11.10
2018-03-24T12:13:27.347Z,11.00
2018-03-24T12:15:54.882Z,10.60
2018-03-24T12:18:22.390Z,11.00
2018-03-24T12:20:49.948Z,11.30
2018-03-24T12:23:17.452Z,11.50
2018-03-24T12:25:44.996Z,11.20
2018-03-24T12:28:12.506Z,10.70
2018-03-24T12:30:40.112Z,10.80
2018-03-24T12:33:07.631Z,11.10
2018-03-24T12:35:35.141Z,10.90
2018-03-24T12:38:02.806Z,10.90
2018-03-24T12:40:30.363Z,10.80
2018-03-24T12:42:57.956Z,10.80
2018-03-24T12:45:25.578Z,11.00
2018-03-24T12:47:53.105Z,11.10
2018-03-24T12:50:26.342Z,11.20
2018-03-24T12:52:53.847Z,11.20
2018-03-24T12:55:22.134Z,11.70
2018-03-24T12:57:50.448Z,11.60
2018-03-24T13:00:17.945Z,11.70
2018-03-24T13:02:45.509Z,11.30
2018-03-24T13:05:13.030Z,11.80
2018-03-24T13:07:40.562Z,11.60
2018-03-24T13:10:08.106Z,11.70
2018-03-24T13:12:36.387Z,11.80
2018-03-24T13:15:03.922Z,11.80
2018-03-24T13:17:31.485Z,12.00
2018-03-24T13:19:59.804Z,12.10
2018-03-24T13:22:27.325Z,12.00
2018-03-24T13:24:55.645Z,11.40
2018-03-24T13:27:23.193Z,11.40
2018-03-24T13:29:50.717Z,11.20
2018-03-24T13:32:19.029Z,11.70
2018-03-24T13:34:46.581Z,11.70
2018-03-24T13:37:14.345Z,11.60
2018-03-24T13:39:41.993Z,11.70
2018-03-24T13:42:09.520Z,11.80
2018-03-24T13:44:37.834Z,11.70
2018-03-24T13:47:06.764Z,11.70
2018-03-24T13:49:36.169Z,11.80
2018-03-24T13:52:03.715Z,11.80
2018-03-24T13:54:31.265Z,11.40
2018-03-24T13:56:59.014Z,11.20
2018-03-24T13:59:26.554Z,11.00
2018-03-24T14:01:54.104Z,11.00
2018-03-24T14:04:22.394Z,11.50
2018-03-24T14:06:49.908Z,11.50
2018-03-24T14:09:17.452Z,11.70
2018-03-24T14:11:45.044Z,11.50
2018-03-24T14:14:13.312Z,11.50
2018-03-24T14:16:41.766Z,11.50
2018-03-24T14:19:09.402Z,11.40
2018-03-24T14:21:37.865Z,11.50
2018-03-24T14:24:05.384Z,11.50
2018-03-24T14:26:33.668Z,11.00
2018-03-24T14:29:01.974Z,11.20
2018-03-24T14:31:29.722Z,11.20
2018-03-24T14:33:57.229Z,11.30
2018-03-24T14:36:26.377Z,11.00
2018-03-24T14:38:53.879Z,11.00
2018-03-24T14:41:21.430Z,11.30
2018-03-24T14:43:48.957Z,11.40
2018-03-24T14:46:16.549Z,11.70
2018-03-24T14:48:44.132Z,11.70
2018-03-24T14:51:11.678Z,11.60
2018-03-24T14:53:39.498Z,11.40
2018-03-24T14:56:07.031Z,11.50
2018-03-24T14:58:35.336Z,11.60
2018-03-24T15:01:02.870Z,11.60
2018-03-24T15:03:31.579Z,11.60
2018-03-24T15:05:59.190Z,11.60
2018-03-24T15:08:26.746Z,11.70
2018-03-24T15:10:54.280Z,11.50
2018-03-24T15:13:21.912Z,11.60
2018-03-24T15:15:49.476Z,11.70
2018-03-24T15:18:17.022Z,11.50
2018-03-24T15:20:44.558Z,11.60
2018-03-24T15:23:12.872Z,11.60
2018-03-24T15:25:40.390Z,11.60
2018-03-24T15:28:08.668Z,11.50
2018-03-24T15:30:49.058Z,11.50
2018-03-24T15:33:28.964Z,11.50
2018-03-24T15:36:08.623Z,11.40
2018-03-24T15:38:36.161Z,11.60
2018-03-24T15:41:03.678Z,11.60
2018-03-24T15:43:31.204Z,11.60
2018-03-24T15:45:58.745Z,11.60
2018-03-24T15:48:27.051Z,11.60
2018-03-24T15:50:54.583Z,11.60
2018-03-24T15:53:22.863Z,11.60
2018-03-24T15:55:50.411Z,11.50
2018-03-24T15:58:18.724Z,11.60
2018-03-24T16:00:46.289Z,11.60
2018-03-24T16:03:13.925Z,11.70
2018-03-24T16:05:41.433Z,11.70
2018-03-24T16:08:09.143Z,11.90
2018-03-24T16:10:36.673Z,11.80
2018-03-24T16:13:04.233Z,11.80
2018-03-24T16:15:31.777Z,11.70
2018-03-24T16:17:59.317Z,11.60
2018-03-24T16:20:26.838Z,11.60
2018-03-24T16:22:54.377Z,11.60
2018-03-24T16:25:22.678Z,11.60
2018-03-24T16:27:50.191Z,11.60
2018-03-24T16:30:17.708Z,11.60
2018-03-24T16:32:45.276Z,11.60
2018-03-24T16:35:12.784Z,11.50
2018-03-24T16:37:40.366Z,11.60
2018-03-24T16:40:07.878Z,11.50
2018-03-24T16:42:35.418Z,11.50
2018-03-24T16:45:02.948Z,11.50
2018-03-24T16:47:30.554Z,11.50
2018-03-24T16:49:58.405Z,11.40
2018-03-24T16:52:26.015Z,11.50
2018-03-24T16:54:53.538Z,11.40
2018-03-24T16:57:21.114Z,11.40
2018-03-24T16:59:49.428Z,11.30
2018-03-24T17:02:17.003Z,11.30
2018-03-24T17:04:44.520Z,11.20
2018-03-24T17:07:12.079Z,11.20
2018-03-24T17:09:40.402Z,11.00
2018-03-24T17:12:07.909Z,11.00
2018-03-24T17:14:35.481Z,11.00
2018-03-24T17:17:02.992Z,11.00
2018-03-24T17:19:30.553Z,10.90
2018-03-24T17:21:58.847Z,10.80
2018-03-24T17:24:27.152Z,10.80
2018-03-24T17:26:54.998Z,10.80
2018-03-24T17:29:22.552Z,10.80
2018-03-24T17:31:50.853Z,10.70
2018-03-24T17:34:18.439Z,10.70
2018-03-24T17:36:46.079Z,10.60
2018-03-24T17:39:13.617Z,10.50
2018-03-24T17:41:41.221Z,10.50
2018-03-24T17:44:09.683Z,10.50
2018-03-24T17:46:37.295Z,10.40
2018-03-24T17:49:05.608Z,10.30
2018-03-24T17:51:33.186Z,10.30
2018-03-24T17:54:00.761Z,10.20
2018-03-24T17:56:28.260Z,10.00
2018-03-24T17:58:55.819Z,10.20
2018-03-24T18:01:23.379Z,10.10
2018-03-24T18:03:50.977Z,9.90
2018-03-24T18:06:18.471Z,9.80
2018-03-24T18:08:46.021Z,9.70
2018-03-24T18:11:13.529Z,9.70
2018-03-24T18:13:41.140Z,9.70
2018-03-24T18:16:08.643Z,9.90
2018-03-24T18:18:36.205Z,9.70
2018-03-24T18:21:03.731Z,9.70
2018-03-24T18:23:32.136Z,9.50
2018-03-24T18:25:59.686Z,9.50
2018-03-24T18:28:27.194Z,9.30
2018-03-24T18:30:54.695Z,9.20
2018-03-24T18:33:22.224Z,9.10
2018-03-24T18:35:50.528Z,8.80
2018-03-24T18:38:18.046Z,8.80
2018-03-24T18:40:45.563Z,8.80
2018-03-24T18:43:13.076Z,8.80
2018-03-24T18:45:41.635Z,8.80
2018-03-24T18:48:09.180Z,8.70
2018-03-24T18:50:36.748Z,8.60
2018-03-24T18:53:04.355Z,8.60
2018-03-24T18:55:31.935Z,8.60
2018-03-24T18:57:59.459Z,8.60
2018-03-24T19:00:27.718Z,8.40
2018-03-24T19:02:55.268Z,8.40
2018-03-24T19:05:22.875Z,8.40
2018-03-24T19:07:50.395Z,8.30
2018-03-24T19:10:17.989Z,8.20
2018-03-24T19:12:46.283Z,8.20
2018-03-24T19:15:13.838Z,8.10
2018-03-24T19:17:42.066Z,8.00
2018-03-24T19:20:10.411Z,8.00
2018-03-24T19:22:37.932Z,8.00
2018-03-24T19:25:05.476Z,7.90
2018-03-24T19:27:33.881Z,7.90
2018-03-24T19:30:01.391Z,7.90
2018-03-24T19:32:29.758Z,7.90
2018-03-24T19:34:57.292Z,7.90
2018-03-24T19:37:24.847Z,7.90
2018-03-24T19:39:52.358Z,7.80
2018-03-24T19:42:20.766Z,8.10
2018-03-24T19:44:48.259Z,8.00
2018-03-24T19:47:15.915Z,8.00
2018-03-24T19:49:43.435Z,8.00
2018-03-24T19:52:10.949Z,7.90
2018-03-24T19:54:38.494Z,8.10
2018-03-24T19:57:05.985Z,7.90
2018-03-24T19:59:34.394Z,7.60
2018-03-24T20:02:01.943Z,7.50
2018-03-24T20:04:29.492Z,7.50
2018-03-24T20:06:57.029Z,7.60
2018-03-24T20:09:25.329Z,7.40
2018-03-24T20:11:53.637Z,7.50
2018-03-24T20:14:21.181Z,7.50
2018-03-24T20:16:48.778Z,7.40
2018-03-24T20:19:16.326Z,7.30
2018-03-24T20:21:43.848Z,7.40
2018-03-24T20:24:11.362Z,7.20
2018-03-24T20:26:38.875Z,7.10
2018-03-24T20:29:06.376Z,7.10
2018-03-24T20:31:33.918Z,7.10
2018-03-24T20:34:01.475Z,7.10
2018-03-24T20:36:28.982Z,7.20
2018-03-24T20:38:56.546Z,7.10
2018-03-24T20:41:24.014Z,7.00
2018-03-24T20:43:51.650Z,7.10
2018-03-24T20:46:20.036Z,7.00
2018-03-24T20:48:48.490Z,7.00
2018-03-24T20:51:16.871Z,6.90
2018-03-24T20:53:44.573Z,6.90
2018-03-24T20:56:12.152Z,7.10
2018-03-24T20:58:39.764Z,7.00
2018-03-24T21:01:08.116Z,6.80
2018-03-24T21:03:35.626Z,6.80
2018-03-24T21:06:03.181Z,6.90
2018-03-24T21:08:30.739Z,6.60
2018-03-24T21:10:58.241Z,6.30
2018-03-24T21:13:25.795Z,6.10
2018-03-24T21:15:54.830Z,5.70
2018-03-24T21:18:22.392Z,5.70
2018-03-24T21:20:50.764Z,5.60
2018-03-24T21:23:19.297Z,5.60
2018-03-24T21:25:46.946Z,5.60
2018-03-24T21:28:16.073Z,5.40
2018-03-24T21:30:43.564Z,5.30
2018-03-24T21:33:11.097Z,5.30
2018-03-24T21:35:38.612Z,5.20
2018-03-24T21:38:06.146Z,5.20
2018-03-24T21:40:33.635Z,5.10
2018-03-24T21:43:01.168Z,5.10
2018-03-24T21:45:28.725Z,5.00
2018-03-24T21:47:56.230Z,5.10
2018-03-24T21:50:23.738Z,5.00
2018-03-24T21:52:51.261Z,4.90
2018-03-24T21:55:19.586Z,4.80
2018-03-24T21:57:47.107Z,4.80
2018-03-24T22:00:14.642Z,4.70
2018-03-24T22:02:42.941Z,4.70
2018-03-24T22:05:10.519Z,4.60
2018-03-24T22:07:38.032Z,4.60
2018-03-24T22:10:05.534Z,4.60
2018-03-24T22:12:33.038Z,4.60
2018-03-24T22:15:00.569Z,4.60
2018-03-24T22:17:28.119Z,4.60
2018-03-24T22:19:55.630Z,4.50
2018-03-24T22:22:23.945Z,4.40
2018-03-24T22:24:51.484Z,4.40
2018-03-24T22:27:19.181Z,4.40
2018-03-24T22:29:46.717Z,4.40
2018-03-24T22:32:14.219Z,4.30
2018-03-24T22:34:41.806Z,4.20
2018-03-24T22:37:10.820Z,4.10
2018-03-24T22:39:38.487Z,4.10
2018-03-24T22:42:06.711Z,4.10
2018-03-24T22:44:34.236Z,4.10
2018-03-24T22:47:01.766Z,4.10
2018-03-24T22:49:29.287Z,4.10
2018-03-24T22:51:57.596Z,4.00
2018-03-24T22:54:25.129Z,4.00
2018-03-24T22:56:53.414Z,3.90
2018-03-24T22:59:21.703Z,3.90
2018-03-24T23:01:49.222Z,3.80
2018-03-24T23:04:16.812Z,3.70
2018-03-24T23:06:45.115Z,3.80
2018-03-24T23:09:12.752Z,3.70
2018-03-24T23:11:40.242Z,3.70
2018-03-24T23:14:07.858Z,3.70
2018-03-24T23:16:35.414Z,3.70
2018-03-24T23:19:03.758Z,3.60
2018-03-24T23:21:31.302Z,3.60
2018-03-24T23:23:59.658Z,3.60
2018-03-24T23:26:27.449Z,3.60
2018-03-24T23:28:54.942Z,3.60
2018-03-24T23:31:23.237Z,3.50
2018-03-24T23:33:50.729Z,3.50
2018-03-24T23:36:18.303Z,3.50
2018-03-24T23:38:45.827Z,3.40
2018-03-24T23:41:13.350Z,3.30
2018-03-24T23:43:41.672Z,3.30
2018-03-24T23:46:09.221Z,3.30
2018-03-24T23:48:36.723Z,3.30
2018-03-24T23:51:04.227Z,3.20
2018-03-24T23:53:32.911Z,3.10
2018-03-24T23:56:00.417Z,3.20
2018-03-24T23:58:27.929Z,3.10
